Time;durP1;ratioP1;P1;durP2;ratioP2;P2;SDS_P1;SDS_P2;PMS_P1;PMS_P2;Temp;Humidity;BMP_temperature;BMP_pressure;BME280_temperature;BME280_humidity;BME280_pressure;Samples;Min_cycle;Max_cycle;Signal;HPM_P1;HPM_P2
2023/09/28 00:00:42;;;;;;;5.45;3.40;;;;;;;20.63;85.12;100385.34;8260072;28;20447;-66
2023/09/28 00:04:43;;;;;;;3.13;2.72;;;;;;;20.69;84.38;100390.88;8260229;28;20077;-66
2023/09/28 00:08:43;;;;;;;3.67;2.85;;;;;;;20.68;84.28;100404.81;8260592;28;20050;-65
2023/09/28 00:12:46;;;;;;;3.78;3.17;;;;;;;20.81;83.33;100388.34;8246517;28;20310;-62
2023/09/28 00:16:46;;;;;;;6.25;2.83;;;;;;;21.02;81.62;100401.94;8257369;28;20126;-63
2023/09/28 00:20:47;;;;;;;3.67;2.83;;;;;;;21.17;80.50;100441.06;8252859;28;20050;-63
2023/09/28 00:24:47;;;;;;;3.95;2.33;;;;;;;21.23;79.76;100464.97;8244420;28;20141;-62
2023/09/28 00:28:48;;;;;;;5.95;2.88;;;;;;;21.18;79.92;100470.25;8251978;28;20047;-63
2023/09/28 00:32:50;;;;;;;4.82;2.95;;;;;;;21.29;78.85;100458.63;8231712;28;20441;-62
2023/09/28 00:36:50;;;;;;;4.65;2.60;;;;;;;21.29;78.73;100475.13;8247792;28;20038;-62
2023/09/28 00:40:51;;;;;;;3.42;2.47;;;;;;;21.13;79.53;100470.88;8241071;28;20057;-62
2023/09/28 00:44:52;;;;;;;3.83;2.50;;;;;;;20.87;81.49;100443.34;8257869;28;20046;-62
2023/09/28 00:48:58;;;;;;;4.53;2.70;;;;;;;20.87;81.43;100461.72;8234176;28;20046;-62
2023/09/28 00:53:04;;;;;;;3.50;2.58;;;;;;;20.76;81.85;100448.56;8253396;28;20050;-63
2023/09/28 00:57:06;;;;;;;5.28;2.38;;;;;;;20.92;80.21;100445.47;8249966;28;20404;-63
2023/09/28 01:01:10;;;;;;;4.47;2.30;;;;;;;21.12;78.79;100440.84;8199257;28;20058;-64
2023/09/28 01:05:13;;;;;;;4.90;2.67;;;;;;;21.22;77.89;100446.75;8228279;28;20136;-64
2023/09/28 01:09:15;;;;;;;4.30;2.38;;;;;;;21.10;78.51;100429.19;8239764;28;20121;-63
2023/09/28 01:13:20;;;;;;;3.70;2.55;;;;;;;21.16;77.73;100422.84;8255139;28;20178;-61
2023/09/28 01:17:21;;;;;;;4.25;2.50;;;;;;;21.38;76.43;100440.88;8247743;28;20038;-61
2023/09/28 01:21:21;;;;;;;2.83;1.92;;;;;;;21.34;76.53;100431.31;8247389;28;20057;-62
2023/09/28 01:25:22;;;;;;;3.47;2.33;;;;;;;21.37;76.28;100439.16;8246962;28;20038;-62
2023/09/28 01:29:22;;;;;;;4.05;2.85;;;;;;;21.25;76.76;100430.69;8245602;28;20056;-63
2023/09/28 01:33:23;;;;;;;4.38;2.50;;;;;;;21.39;75.99;100434.28;8247876;28;20092;-64
2023/09/28 01:37:30;;;;;;;4.30;2.00;;;;;;;21.35;76.20;100444.03;8208869;28;20275;-62
2023/09/28 01:41:30;;;;;;;3.17;2.47;;;;;;;21.27;76.71;100438.75;8210764;28;20046;-63
2023/09/28 01:45:31;;;;;;;3.60;2.22;;;;;;;21.17;77.41;100443.81;8218074;28;20644;-62
2023/09/28 01:49:31;;;;;;;4.13;2.50;;;;;;;21.11;77.74;100441.91;8184679;28;20258;-62
2023/09/28 01:53:32;;;;;;;3.40;2.35;;;;;;;20.96;79.30;100441.25;8231077;28;20105;-63
2023/09/28 01:57:32;;;;;;;3.83;2.67;;;;;;;20.98;78.75;100448.22;8213217;28;20038;-62
2023/09/28 02:01:33;;;;;;;3.00;2.30;;;;;;;20.89;79.17;100451.38;8241428;28;20377;-63
2023/09/28 02:05:33;;;;;;;4.35;2.47;;;;;;;20.84;79.41;100459.38;8269923;28;20554;-62
2023/09/28 02:09:34;;;;;;;3.13;2.47;;;;;;;20.72;80.34;100455.53;8243243;28;20484;-64
2023/09/28 02:13:34;;;;;;;3.33;2.22;;;;;;;20.73;80.02;100447.09;8253516;28;20034;-62
2023/09/28 02:17:37;;;;;;;3.13;2.35;;;;;;;20.75;80.10;100444.13;8189563;28;20046;-59
2023/09/28 02:21:37;;;;;;;3.15;2.45;;;;;;;20.62;80.56;100460.59;8258813;28;20045;-59
2023/09/28 02:25:38;;;;;;;6.68;2.40;;;;;;;20.59;80.63;100456.34;8248910;28;20041;-65
2023/09/28 02:29:38;;;;;;;7.03;2.50;;;;;;;20.46;81.27;100466.47;8258851;28;20073;-65
2023/09/28 02:33:40;;;;;;;3.53;2.67;;;;;;;20.23;83.16;100466.78;8233904;28;20054;-62
2023/09/28 02:37:41;;;;;;;3.05;2.28;;;;;;;19.85;85.16;100473.69;8256808;28;20058;-62
2023/09/28 02:41:42;;;;;;;7.22;3.00;;;;;;;20.11;83.09;100481.25;8272755;28;20105;-62
2023/09/28 02:45:42;;;;;;;3.70;2.53;;;;;;;20.19;82.61;100481.13;8257314;28;20066;-62
2023/09/28 02:49:43;;;;;;;3.88;2.60;;;;;;;20.19;82.51;100479.19;8254157;28;20522;-62
2023/09/28 02:53:44;;;;;;;3.10;2.42;;;;;;;20.12;82.53;100485.66;8256474;28;20129;-62
2023/09/28 02:57:44;;;;;;;2.95;2.20;;;;;;;19.67;86.46;100486.25;8224793;28;20128;-62
2023/09/28 03:01:45;;;;;;;2.95;2.40;;;;;;;19.42;87.94;100488.56;8258419;28;20073;-63
2023/09/28 03:05:46;;;;;;;3.60;2.72;;;;;;;19.16;89.43;100493.78;8258297;28;20180;-62
2023/09/28 03:09:47;;;;;;;6.20;2.70;;;;;;;19.25;89.53;100496.19;8257652;28;20038;-62
2023/09/28 03:13:48;;;;;;;4.57;2.45;;;;;;;19.62;85.78;100499.69;8264614;28;20038;-63
2023/09/28 03:17:49;;;;;;;4.55;2.60;;;;;;;19.79;84.71;100507.41;8263669;28;20057;-63
2023/09/28 03:21:49;;;;;;;5.90;2.33;;;;;;;19.45;86.36;100505.47;8250147;28;20035;-62
2023/09/28 03:25:50;;;;;;;3.15;2.30;;;;;;;19.10;89.67;100506.41;8259681;28;20053;-62
2023/09/28 03:29:52;;;;;;;3.35;2.95;;;;;;;19.12;88.88;100515.25;8264424;28;20045;-63
2023/09/28 03:33:54;;;;;;;4.90;2.85;;;;;;;18.95;89.69;100518.44;8262899;28;20439;-63
2023/09/28 03:37:57;;;;;;;5.68;2.70;;;;;;;18.71;91.45;100516.91;8262621;28;20262;-63
2023/09/28 03:41:57;;;;;;;2.92;2.40;;;;;;;18.78;91.74;100517.84;8262914;28;20038;-63
2023/09/28 03:45:58;;;;;;;5.70;3.13;;;;;;;18.41;93.22;100528.97;8261985;28;20073;-60
2023/09/28 03:49:59;;;;;;;4.53;2.45;;;;;;;18.21;95.95;100522.31;8262509;28;20646;-59
2023/09/28 03:53:59;;;;;;;3.25;2.95;;;;;;;18.40;94.49;100530.00;8245210;28;20046;-60
2023/09/28 03:58:01;;;;;;;9.45;3.13;;;;;;;18.33;94.79;100539.13;8262358;28;20196;-60
2023/09/28 04:02:02;;;;;;;5.22;3.45;;;;;;;18.38;94.46;100548.50;8256930;28;20103;-60
2023/09/28 04:06:02;;;;;;;6.80;3.15;;;;;;;18.14;96.38;100551.50;8257919;28;20101;-59
2023/09/28 04:10:03;;;;;;;3.40;2.70;;;;;;;18.26;94.45;100551.88;8261760;28;20097;-59
2023/09/28 04:14:07;;;;;;;8.00;3.70;;;;;;;18.23;95.09;100558.56;8225474;28;20038;-59
2023/09/28 04:18:08;;;;;;;5.75;3.30;;;;;;;18.28;94.89;100563.47;8258372;28;20042;-62
2023/09/28 04:22:08;;;;;;;9.52;3.25;;;;;;;18.21;94.76;100574.31;8251531;28;20095;-59
2023/09/28 04:26:09;;;;;;;10.00;4.20;;;;;;;17.81;98.18;100576.66;8259408;28;20049;-63
2023/09/28 04:30:10;;;;;;;7.65;3.58;;;;;;;17.77;99.04;100581.63;8255839;28;20109;-61
2023/09/28 04:34:13;;;;;;;4.35;3.72;;;;;;;17.62;99.13;100583.47;8258610;28;20038;-59
2023/09/28 04:38:13;;;;;;;5.65;3.90;;;;;;;17.57;99.59;100580.47;8271539;28;20042;-60
2023/09/28 04:42:13;;;;;;;8.50;4.63;;;;;;;17.71;98.76;100571.44;8257099;28;20030;-62
2023/09/28 04:46:14;;;;;;;6.32;4.05;;;;;;;17.61;99.10;100570.84;8233496;28;20519;-60
2023/09/28 04:50:15;;;;;;;7.03;5.10;;;;;;;17.68;98.70;100576.44;8258082;28;20403;-60
2023/09/28 04:54:15;;;;;;;7.18;5.15;;;;;;;17.74;98.43;100587.47;8258407;28;20061;-60
2023/09/28 04:58:16;;;;;;;7.63;5.00;;;;;;;17.66;98.19;100589.44;8250200;28;20515;-62
2023/09/28 05:02:17;;;;;;;6.72;5.15;;;;;;;17.47;99.56;100601.72;8235705;28;20046;-63
2023/09/28 05:06:17;;;;;;;5.85;4.20;;;;;;;17.24;100.00;100600.84;8250537;28;20046;-63
2023/09/28 05:10:18;;;;;;;10.35;4.63;;;;;;;17.49;100.00;100594.19;8254705;28;20038;-63
2023/09/28 05:14:23;;;;;;;6.57;4.53;;;;;;;17.22;100.00;100602.91;8254708;28;20478;-63
2023/09/28 05:18:24;;;;;;;6.85;4.63;;;;;;;17.15;100.00;100607.38;8253673;28;20054;-63
2023/09/28 05:22:26;;;;;;;7.50;4.60;;;;;;;17.35;100.00;100603.13;8257409;28;20046;-63
2023/09/28 05:26:26;;;;;;;13.43;5.25;;;;;;;17.05;100.00;100598.59;8257090;28;20030;-65
2023/09/28 05:30:27;;;;;;;10.27;5.80;;;;;;;17.21;100.00;100593.00;8256944;28;20050;-66
2023/09/28 05:34:27;;;;;;;10.80;5.57;;;;;;;17.35;100.00;100600.41;8257023;28;20491;-65
2023/09/28 05:38:28;;;;;;;18.33;5.22;;;;;;;17.45;100.00;100603.78;8255798;28;20112;-64
2023/09/28 05:42:28;;;;;;;10.00;4.82;;;;;;;17.43;100.00;100612.19;8252574;28;20042;-63
2023/09/28 05:46:29;;;;;;;7.57;5.22;;;;;;;17.41;100.00;100600.53;8254048;28;20460;-63
2023/09/28 05:50:30;;;;;;;10.23;5.10;;;;;;;17.41;100.00;100616.06;8271782;28;20049;-63
2023/09/28 05:54:30;;;;;;;7.80;4.90;;;;;;;17.68;98.98;100639.34;8257148;28;20327;-63
2023/09/28 05:58:31;;;;;;;12.65;4.50;;;;;;;17.39;99.74;100645.50;8255774;28;20049;-63
2023/09/28 06:02:31;;;;;;;7.88;4.38;;;;;;;17.21;100.00;100651.25;8256569;28;20403;-64
2023/09/28 06:06:32;;;;;;;6.35;4.75;;;;;;;17.37;100.00;100639.34;8257075;28;20074;-59
2023/09/28 06:10:33;;;;;;;8.68;4.70;;;;;;;17.40;100.00;100638.97;8256591;28;20035;-59
2023/09/28 06:14:34;;;;;;;10.10;5.28;;;;;;;17.36;99.69;100640.38;8256381;28;20053;-60
2023/09/28 06:18:35;;;;;;;7.78;4.70;;;;;;;17.35;100.00;100638.66;8254715;28;20061;-58
2023/09/28 06:22:36;;;;;;;6.85;4.40;;;;;;;17.53;99.14;100655.66;8255855;28;20426;-59
2023/09/28 06:26:37;;;;;;;8.27;4.78;;;;;;;17.81;97.56;100665.00;8255743;28;20069;-60
2023/09/28 06:30:38;;;;;;;10.80;4.93;;;;;;;17.95;97.11;100666.97;8255950;28;20038;-59
2023/09/28 06:34:38;;;;;;;11.68;4.43;;;;;;;18.19;96.45;100669.47;8256149;28;20093;-59
2023/09/28 06:38:39;;;;;;;6.28;4.47;;;;;;;18.57;95.76;100668.41;8255184;28;20046;-60
2023/09/28 06:42:39;;;;;;;4.30;2.90;;;;;;;19.23;92.34;100672.88;8256865;28;20042;-62
2023/09/28 06:46:40;;;;;;;8.38;4.05;;;;;;;20.00;87.10;100679.47;8270422;28;20030;-60
2023/09/28 06:50:40;;;;;;;10.15;4.13;;;;;;;20.13;86.23;100680.44;8256216;28;20066;-63
2023/09/28 06:54:41;;;;;;;7.45;3.45;;;;;;;20.21;87.33;100695.91;8255755;28;20050;-60
2023/09/28 06:58:41;;;;;;;6.00;3.00;;;;;;;20.53;85.55;100696.19;8255148;28;20063;-60
2023/09/28 07:02:47;;;;;;;7.78;3.72;;;;;;;20.71;84.65;100701.19;8255550;28;20100;-60
2023/09/28 07:06:48;;;;;;;7.15;4.03;;;;;;;20.83;84.49;100711.38;8254899;28;20042;-60
2023/09/28 07:10:48;;;;;;;7.93;3.22;;;;;;;21.01;85.39;100720.00;8254455;28;20042;-60
2023/09/28 07:14:50;;;;;;;11.57;3.45;;;;;;;21.25;83.94;100721.38;8246887;28;20420;-59
2023/09/28 07:18:50;;;;;;;9.50;3.78;;;;;;;21.52;83.37;100720.44;8239341;28;20038;-63
2023/09/28 07:22:51;;;;;;;10.75;3.08;;;;;;;21.85;82.87;100718.66;8245545;28;20043;-63
2023/09/28 07:26:51;;;;;;;12.85;3.53;;;;;;;22.04;82.08;100723.34;8245503;28;20045;-63
2023/09/28 07:30:52;;;;;;;9.13;3.35;;;;;;;22.28;81.57;100720.00;8254310;28;20068;-63
2023/09/28 07:34:52;;;;;;;6.90;2.95;;;;;;;22.42;81.26;100727.19;8254181;28;20042;-63
2023/09/28 07:38:53;;;;;;;8.43;3.33;;;;;;;21.93;82.02;100726.75;8254210;28;20035;-62
2023/09/28 07:42:54;;;;;;;10.40;3.78;;;;;;;21.63;83.88;100741.88;8234898;28;20042;-62
2023/09/28 07:46:54;;;;;;;11.63;3.92;;;;;;;21.96;83.80;100745.56;8245345;28;20501;-62
2023/09/28 07:50:55;;;;;;;7.32;3.40;;;;;;;22.25;82.76;100753.47;8254365;28;20137;-62
2023/09/28 07:54:56;;;;;;;10.05;4.18;;;;;;;22.58;80.87;100748.88;8254995;28;20046;-62
2023/09/28 07:58:57;;;;;;;20.00;3.67;;;;;;;22.69;81.11;100737.16;8258308;28;20045;-64
2023/09/28 08:02:58;;;;;;;8.07;2.80;;;;;;;22.51;81.73;100741.66;8260258;28;20042;-63
2023/09/28 08:06:58;;;;;;;9.40;3.35;;;;;;;22.30;84.01;100730.81;8261036;28;20043;-64
2023/09/28 08:11:00;;;;;;;8.00;3.28;;;;;;;22.35;83.18;100731.84;8259856;28;20049;-60
2023/09/28 08:15:01;;;;;;;10.23;4.13;;;;;;;22.80;85.70;100739.28;8260343;28;20038;-60
2023/09/28 08:19:02;;;;;;;8.80;3.85;;;;;;;23.21;83.17;100744.50;8259643;28;20076;-62
2023/09/28 08:23:04;;;;;;;9.52;3.80;;;;;;;23.34;81.73;100744.50;8259840;28;20045;-63
2023/09/28 08:27:05;;;;;;;10.43;4.25;;;;;;;23.37;82.17;100755.09;8258722;28;20038;-62
2023/09/28 08:31:05;;;;;;;9.85;4.72;;;;;;;23.39;82.12;100752.94;8260177;28;20042;-59
2023/09/28 08:35:09;;;;;;;8.70;3.88;;;;;;;23.58;81.70;100767.75;8259117;28;20112;-60
2023/09/28 08:39:10;;;;;;;15.98;4.43;;;;;;;23.87;79.62;100775.47;8259285;28;20145;-61
2023/09/28 08:43:15;;;;;;;8.65;3.50;;;;;;;24.04;78.25;100776.69;8259052;28;20141;-60
2023/09/28 08:47:16;;;;;;;10.45;3.70;;;;;;;24.30;76.67;100784.78;8258333;28;20034;-60
2023/09/28 08:51:18;;;;;;;12.23;3.55;;;;;;;24.07;77.92;100790.06;8263821;28;20038;-62
2023/09/28 08:55:21;;;;;;;7.95;3.38;;;;;;;24.46;77.22;100789.81;8258301;28;20038;-63
2023/09/28 08:59:23;;;;;;;6.97;3.10;;;;;;;24.22;76.57;100790.59;8258072;28;20038;-62
2023/09/28 09:03:25;;;;;;;9.45;3.38;;;;;;;24.19;77.17;100793.81;8256834;28;20045;-62
2023/09/28 09:07:25;;;;;;;6.95;3.20;;;;;;;24.61;75.38;100782.03;8256676;28;20042;-62
2023/09/28 09:11:33;;;;;;;15.48;2.97;;;;;;;25.05;73.81;100801.25;8257538;28;20531;-62
2023/09/28 09:15:36;;;;;;;9.80;2.88;;;;;;;26.50;68.72;100794.50;8254741;28;20053;-62
2023/09/28 09:19:36;;;;;;;5.45;2.47;;;;;;;27.76;64.31;100809.56;8257837;28;20566;-63
2023/09/28 09:23:37;;;;;;;11.00;3.42;;;;;;;27.02;65.62;100814.19;8256734;28;20495;-62
2023/09/28 09:27:38;;;;;;;8.85;2.72;;;;;;;25.38;70.57;100815.63;8257152;28;20030;-62
2023/09/28 09:31:40;;;;;;;8.50;2.75;;;;;;;24.88;72.54;100816.72;8257836;28;20042;-62
2023/09/28 09:35:40;;;;;;;8.00;3.25;;;;;;;24.64;73.37;100812.88;8253611;28;20038;-63
2023/09/28 09:39:41;;;;;;;9.95;3.25;;;;;;;24.39;75.20;100816.63;8254879;28;20499;-62
2023/09/28 09:43:41;;;;;;;6.57;2.90;;;;;;;24.18;76.41;100819.75;8253192;28;20416;-62
2023/09/28 09:47:47;;;;;;;8.27;3.50;;;;;;;24.45;75.74;100816.59;8251960;28;20046;-62
2023/09/28 09:51:48;;;;;;;8.75;2.88;;;;;;;24.36;76.16;100806.03;8255726;28;20050;-62
2023/09/28 09:55:49;;;;;;;13.38;3.33;;;;;;;24.23;76.52;100806.13;8257126;28;20076;-63
2023/09/28 09:59:53;;;;;;;10.52;3.10;;;;;;;24.36;75.89;100806.03;8255647;28;20043;-61
2023/09/28 10:03:55;;;;;;;11.88;3.85;;;;;;;25.07;74.19;100801.88;8256630;28;20042;-60
2023/09/28 10:07:57;;;;;;;10.18;3.15;;;;;;;25.13;73.07;100814.78;8259743;28;20497;-60
2023/09/28 10:11:59;;;;;;;14.55;3.42;;;;;;;26.53;69.37;100805.13;8254101;28;20133;-61
2023/09/28 10:16:02;;;;;;;9.40;3.38;;;;;;;27.88;64.23;100813.19;8256191;28;20673;-61
2023/09/28 10:20:06;;;;;;;6.23;2.93;;;;;;;28.03;63.65;100819.03;8250729;28;20652;-60
2023/09/28 10:24:08;;;;;;;13.98;3.63;;;;;;;27.33;64.62;100805.53;8251546;28;20050;-60
2023/09/28 10:28:09;;;;;;;11.65;3.35;;;;;;;27.86;63.46;100806.16;8254813;28;20042;-61
2023/09/28 10:32:30;;;;;;;10.77;3.60;;;;;;;29.06;60.76;100804.84;8255834;28;20128;-62
2023/09/28 10:36:33;;;;;;;12.40;3.17;;;;;;;29.11;60.17;100808.56;8255003;28;20046;-60
2023/09/28 10:40:33;;;;;;;12.20;2.55;;;;;;;28.96;60.77;100816.63;8251357;28;20125;-61
2023/09/28 10:44:46;;;;;;;9.25;2.78;;;;;;;28.13;62.00;100815.63;8250991;28;20056;-60
2023/09/28 10:48:46;;;;;;;11.48;3.17;;;;;;;27.47;62.94;100804.19;8248458;28;20335;-63
2023/09/28 10:52:47;;;;;;;7.40;2.92;;;;;;;26.57;66.79;100803.59;8253673;28;20309;-64
2023/09/28 10:56:49;;;;;;;5.75;2.30;;;;;;;25.97;68.76;100801.88;8252281;28;20056;-64
2023/09/28 11:00:49;;;;;;;6.65;3.05;;;;;;;25.59;70.70;100804.09;8252796;28;20554;-60
2023/09/28 11:04:50;;;;;;;8.50;3.10;;;;;;;25.60;71.22;100794.69;8254556;28;20475;-60
2023/09/28 11:08:51;;;;;;;8.60;2.88;;;;;;;26.82;68.04;100784.00;8254395;28;20147;-61
2023/09/28 11:12:51;;;;;;;9.95;2.85;;;;;;;28.21;63.18;100784.66;8255014;28;20053;-62
2023/09/28 11:16:52;;;;;;;8.65;2.80;;;;;;;29.02;60.84;100782.19;8255067;28;20096;-60
2023/09/28 11:20:56;;;;;;;9.55;2.88;;;;;;;29.02;60.46;100787.78;8255225;28;20177;-62
2023/09/28 11:24:57;;;;;;;16.13;3.13;;;;;;;29.10;60.28;100795.75;8258177;28;20133;-63
2023/09/28 11:28:58;;;;;;;7.28;2.35;;;;;;;27.33;64.51;100791.63;8265211;28;20042;-60
2023/09/28 11:33:02;;;;;;;7.60;2.78;;;;;;;26.78;65.70;100786.38;8253434;28;20100;-60
2023/09/28 11:37:08;;;;;;;;;;;;;;;28.07;63.79;100783.25;8266869;28;20472;-60
2023/09/28 11:41:09;;;;;;;9.98;2.53;;;;;;;28.70;61.02;100783.91;8248601;28;20272;-64
2023/09/28 11:45:12;;;;;;;5.85;2.50;;;;;;;28.77;60.70;100784.56;8252045;28;20034;-61
2023/09/28 11:49:14;;;;;;;9.47;2.83;;;;;;;28.62;61.48;100775.97;8252269;28;20122;-61
2023/09/28 11:53:15;;;;;;;8.27;2.90;;;;;;;27.92;62.72;100763.47;8249638;28;20031;-60
2023/09/28 11:57:18;;;;;;;10.43;3.10;;;;;;;27.11;64.62;100754.44;8248780;28;20038;-63
2023/09/28 12:01:19;;;;;;;7.15;2.50;;;;;;;27.67;63.97;100751.81;8243882;28;20480;-58
2023/09/28 12:05:21;;;;;;;8.40;3.05;;;;;;;27.64;63.56;100738.41;8240984;28;20421;-58
2023/09/28 12:09:22;;;;;;;6.75;2.90;;;;;;;27.12;66.61;100747.78;8252779;28;20105;-62
2023/09/28 12:13:24;;;;;;;14.23;2.90;;;;;;;27.08;65.87;100741.03;8251195;28;20472;-58
2023/09/28 12:17:24;;;;;;;10.23;3.45;;;;;;;26.57;66.21;100741.72;8255507;28;20034;-58
2023/09/28 12:21:25;;;;;;;7.57;3.00;;;;;;;26.17;67.64;100741.50;8248173;28;20054;-59
2023/09/28 12:25:28;;;;;;;10.05;2.67;;;;;;;26.50;66.29;100746.53;8245168;28;20050;-59
2023/09/28 12:29:28;;;;;;;9.50;3.83;;;;;;;27.04;66.09;100737.06;8254839;28;20077;-62
2023/09/28 12:33:28;;;;;;;6.82;3.00;;;;;;;26.43;67.29;100746.63;8257441;28;20165;-60
2023/09/28 12:37:32;;;;;;;9.20;2.40;;;;;;;26.53;66.44;100741.34;8255706;28;20065;-61
2023/09/28 12:41:34;;;;;;;8.85;2.45;;;;;;;26.53;65.92;100738.56;8256549;28;20046;-61
2023/09/28 12:45:35;;;;;;;10.82;2.97;;;;;;;26.20;66.72;100738.25;8255072;28;20468;-60
2023/09/28 12:49:35;;;;;;;8.52;2.83;;;;;;;25.91;68.35;100739.09;8255033;28;20034;-60
2023/09/28 12:53:38;;;;;;;11.27;3.22;;;;;;;25.84;68.01;100741.13;8255800;28;20157;-60
2023/09/28 12:57:39;;;;;;;8.30;2.80;;;;;;;25.61;68.82;100737.38;8254475;28;20043;-60
2023/09/28 13:01:39;;;;;;;7.80;3.17;;;;;;;25.66;69.23;100738.38;8256935;28;20043;-62
2023/09/28 13:05:41;;;;;;;7.20;3.03;;;;;;;25.62;69.56;100726.06;8255651;28;20042;-62
2023/09/28 13:09:42;;;;;;;8.75;2.70;;;;;;;25.59;69.92;100709.94;8252885;28;20649;-60
2023/09/28 13:13:42;;;;;;;13.00;3.10;;;;;;;25.66;69.91;100709.81;8255503;28;20050;-61
2023/09/28 13:17:43;;;;;;;6.88;2.70;;;;;;;25.71;69.81;100701.66;8257357;28;20081;-61
2023/09/28 13:21:46;;;;;;;8.20;2.70;;;;;;;25.59;70.44;100712.69;8255724;28;20050;-61
2023/09/28 13:25:46;;;;;;;14.25;3.20;;;;;;;25.61;70.08;100706.94;8244849;28;20050;-60
2023/09/28 13:29:47;;;;;;;9.43;2.83;;;;;;;25.71;69.27;100713.56;8252284;28;20057;-62
2023/09/28 13:33:48;;;;;;;8.07;2.65;;;;;;;25.62;69.70;100706.69;8257087;28;20045;-63
2023/09/28 13:37:49;;;;;;;10.50;2.67;;;;;;;25.69;70.07;100704.66;8271175;28;20038;-63
2023/09/28 13:41:51;;;;;;;8.38;2.78;;;;;;;25.74;69.84;100701.19;8253215;28;20076;-63
2023/09/28 13:45:52;;;;;;;6.88;2.75;;;;;;;25.69;69.76;100704.66;8255748;28;20133;-63
2023/09/28 13:49:54;;;;;;;7.88;2.38;;;;;;;25.75;69.79;100705.66;8255889;28;20058;-62
2023/09/28 13:53:54;;;;;;;5.00;2.47;;;;;;;25.57;69.71;100683.53;8255558;28;20415;-60
2023/09/28 13:57:55;;;;;;;7.30;2.70;;;;;;;25.74;70.05;100684.56;8253851;28;20068;-60
2023/09/28 14:01:55;;;;;;;9.20;3.20;;;;;;;25.99;69.72;100694.47;8252453;28;20599;-63
2023/09/28 14:05:57;;;;;;;7.00;2.33;;;;;;;26.02;68.97;100702.31;8253695;28;20108;-62
2023/09/28 14:09:57;;;;;;;5.22;2.60;;;;;;;25.96;69.59;100689.34;8252450;28;20851;-63
2023/09/28 14:13:59;;;;;;;5.35;2.55;;;;;;;25.84;69.08;100679.31;8257726;28;20113;-64
2023/09/28 14:17:59;;;;;;;8.15;2.40;;;;;;;25.81;70.25;100669.53;8254015;28;20038;-63
2023/09/28 14:22:00;;;;;;;4.60;2.28;;;;;;;25.81;70.12;100661.22;8252414;28;20042;-63
2023/09/28 14:26:01;;;;;;;6.47;2.20;;;;;;;25.79;70.63;100655.06;8253885;28;20034;-67
2023/09/28 14:30:06;;;;;;;6.22;2.10;;;;;;;25.62;69.81;100659.59;8249484;28;20496;-63
2023/09/28 14:34:06;;;;;;;9.18;2.40;;;;;;;25.56;69.85;100649.47;8254524;28;20045;-64
2023/09/28 14:38:07;;;;;;;6.63;2.55;;;;;;;25.61;69.91;100641.28;8254106;28;20042;-63
2023/09/28 14:42:07;;;;;;;5.20;2.28;;;;;;;25.78;70.21;100636.78;8251592;28;20042;-63
2023/09/28 14:46:08;;;;;;;4.33;2.13;;;;;;;25.82;69.68;100632.44;8250638;28;20093;-64
2023/09/28 14:50:10;;;;;;;8.27;2.15;;;;;;;25.73;70.35;100639.41;8248377;28;20273;-61
2023/09/28 14:54:10;;;;;;;7.05;2.28;;;;;;;25.66;70.76;100646.13;8252239;28;20076;-59
2023/09/28 14:58:11;;;;;;;3.50;2.33;;;;;;;25.79;71.66;100654.22;8254415;28;20042;-61
2023/09/28 15:02:13;;;;;;;6.88;2.33;;;;;;;25.79;71.90;100649.53;8253466;28;20554;-64
2023/09/28 15:06:14;;;;;;;5.85;2.35;;;;;;;25.85;72.34;100658.81;8253991;28;20472;-64
2023/09/28 15:10:14;;;;;;;6.28;2.50;;;;;;;25.82;71.62;100654.59;8259003;28;20599;-62
2023/09/28 15:14:14;;;;;;;5.97;2.40;;;;;;;25.78;71.86;100653.41;8259064;28;20045;-66
2023/09/28 15:18:15;;;;;;;8.85;2.00;;;;;;;25.67;71.20;100656.97;8261359;28;20141;-64
2023/09/28 15:22:15;;;;;;;5.07;2.30;;;;;;;25.52;71.27;100653.75;8253736;28;20138;-63
2023/09/28 15:26:16;;;;;;;3.92;2.00;;;;;;;25.46;71.43;100657.47;8255874;28;20046;-64
2023/09/28 15:30:16;;;;;;;12.07;2.40;;;;;;;25.48;72.18;100658.09;8254721;28;20484;-62
2023/09/28 15:34:19;;;;;;;5.30;1.90;;;;;;;25.44;72.31;100656.88;8259603;28;20038;-63
2023/09/28 15:38:19;;;;;;;7.10;2.95;;;;;;;25.37;72.90;100647.78;8260921;28;20512;-64
2023/09/28 15:42:20;;;;;;;10.98;2.90;;;;;;;25.30;76.22;100647.00;8261723;28;20440;-63
2023/09/28 15:46:20;;;;;;;6.85;3.08;;;;;;;25.16;75.81;100648.28;8260316;28;20034;-63
2023/09/28 15:50:21;;;;;;;3.75;2.10;;;;;;;25.06;75.06;100642.41;8258442;28;20124;-63
2023/09/28 15:54:22;;;;;;;6.93;2.03;;;;;;;25.17;74.10;100646.34;8259751;28;20031;-64
2023/09/28 15:58:22;;;;;;;3.10;1.80;;;;;;;25.20;72.02;100643.97;8258025;28;20050;-64
2023/09/28 16:02:25;;;;;;;7.22;2.60;;;;;;;25.21;74.65;100633.72;8255074;28;20047;-64
2023/09/28 16:06:25;;;;;;;7.95;2.50;;;;;;;25.04;74.98;100631.56;8252028;28;20069;-64
2023/09/28 16:10:26;;;;;;;5.15;2.45;;;;;;;24.97;73.56;100635.50;8257230;28;20092;-63
2023/09/28 16:14:26;;;;;;;4.00;1.85;;;;;;;25.00;72.68;100632.28;8314727;23;20040;-63
2023/09/28 16:18:27;;;;;;;4.80;1.92;;;;;;;24.98;72.50;100628.91;8317595;28;20445;-63
2023/09/28 16:22:27;;;;;;;7.20;2.28;;;;;;;24.93;79.30;100642.59;8317810;28;20041;-63
2023/09/28 16:26:28;;;;;;;11.60;2.83;;;;;;;24.45;81.68;100634.13;8316735;28;20041;-63
2023/09/28 16:30:28;;;;;;;6.60;2.45;;;;;;;24.39;84.27;100640.56;8313261;28;20383;-61
2023/09/28 16:34:30;;;;;;;3.88;2.50;;;;;;;24.51;80.82;100643.44;8317663;28;20081;-60
2023/09/28 16:38:31;;;;;;;7.72;2.30;;;;;;;24.53;77.41;100638.53;8326413;23;20414;-61
2023/09/28 16:42:31;;;;;;;6.43;2.92;;;;;;;24.61;79.47;100643.78;8319601;28;20055;-61
2023/09/28 16:46:32;;;;;;;5.50;2.30;;;;;;;24.38;83.66;100638.03;8319524;28;20111;-60
2023/09/28 16:50:32;;;;;;;7.13;2.60;;;;;;;24.07;83.68;100640.88;8321923;28;20037;-59
2023/09/28 16:54:35;;;;;;;4.78;2.58;;;;;;;23.89;85.39;100644.38;8302770;28;20041;-60
2023/09/28 16:58:41;;;;;;;4.95;2.15;;;;;;;23.94;82.33;100640.94;8299175;28;20088;-60
2023/09/28 17:02:42;;;;;;;3.67;2.33;;;;;;;24.00;81.57;100632.63;8320869;28;20129;-60
2023/09/28 17:06:42;;;;;;;3.88;2.20;;;;;;;23.81;83.65;100635.50;8302916;28;20049;-60
2023/09/28 17:10:44;;;;;;;11.13;2.70;;;;;;;23.63;85.09;100632.69;8320376;28;20048;-61
2023/09/28 17:14:44;;;;;;;11.68;2.45;;;;;;;23.65;84.41;100633.28;8318225;28;20191;-61
2023/09/28 17:18:45;;;;;;;7.28;2.42;;;;;;;23.61;84.04;100640.31;8319387;28;20056;-61
2023/09/28 17:22:46;;;;;;;8.27;2.55;;;;;;;23.29;86.56;100636.69;8319294;28;20041;-61
2023/09/28 17:26:47;;;;;;;43.13;4.45;;;;;;;23.34;85.42;100624.97;8297179;28;20045;-62
2023/09/28 17:30:47;;;;;;;6.50;2.70;;;;;;;22.89;89.00;100624.09;8318055;28;20135;-62
2023/09/28 17:34:48;;;;;;;10.00;3.55;;;;;;;22.90;89.15;100625.78;8319710;28;20051;-62
2023/09/28 17:38:48;;;;;;;13.23;5.90;;;;;;;22.86;89.46;100625.38;8318426;28;20441;-62
2023/09/28 17:42:49;;;;;;;5.63;2.60;;;;;;;22.73;90.79;100630.94;8318647;28;20037;-61
2023/09/28 17:46:50;;;;;;;6.80;2.80;;;;;;;22.49;93.37;100627.97;8315002;28;20103;-62
2023/09/28 17:50:50;;;;;;;6.32;2.78;;;;;;;22.23;95.41;100631.63;8318734;28;20137;-64
2023/09/28 17:54:51;;;;;;;5.28;2.63;;;;;;;22.17;95.13;100645.41;8300190;28;20498;-65
2023/09/28 17:58:53;;;;;;;6.40;2.10;;;;;;;22.07;95.11;100654.09;8314807;28;20470;-64
2023/09/28 18:02:54;;;;;;;4.25;2.80;;;;;;;21.74;97.50;100644.94;8316707;28;20052;-65
2023/09/28 18:06:57;;;;;;;8.70;3.40;;;;;;;21.74;97.71;100649.63;8291310;28;20045;-64
2023/09/28 18:10:57;;;;;;;4.38;3.13;;;;;;;21.84;97.44;100667.44;8314111;28;20065;-66
2023/09/28 18:14:58;;;;;;;8.43;3.13;;;;;;;21.87;96.31;100664.25;8316538;28;20056;-65
2023/09/28 18:18:58;;;;;;;6.05;3.35;;;;;;;21.70;97.82;100662.91;8316351;28;20041;-65
2023/09/28 18:22:58;;;;;;;7.45;3.40;;;;;;;21.85;97.47;100663.59;8318670;28;20041;-60
2023/09/28 18:26:59;;;;;;;5.68;3.25;;;;;;;21.71;98.05;100661.84;8319568;28;20498;-60
2023/09/28 18:30:59;;;;;;;6.38;3.45;;;;;;;21.65;97.29;100665.44;8320527;28;20561;-64
2023/09/28 18:35:00;;;;;;;7.10;3.53;;;;;;;21.87;95.63;100672.50;8295159;28;20042;-64
2023/09/28 18:39:00;;;;;;;10.52;3.63;;;;;;;21.93;94.42;100677.19;8317342;28;20132;-63